Time;durP1;ratioP1;P1;durP2;ratioP2;P2;SDS_P1;SDS_P2;PMS_P1;PMS_P2;Temp;Humidity;BMP_temperature;BMP_pressure;BME280_temperature;BME280_humidity;BME280_pressure;Samples;Min_cycle;Max_cycle;Signal;HPM_P1;HPM_P2
2023/01/06 00:02:05;;;;;;;2.00;1.20;;;7.10;99.90;;;;;;5053770;28;20238;-52
2023/01/06 00:04:33;;;;;;;2.83;1.93;;;7.10;99.90;;;;;;5053655;28;20270;-52
2023/01/06 00:07:00;;;;;;;1.80;1.70;;;7.10;99.90;;;;;;5052826;28;20195;-52
2023/01/06 00:09:27;;;;;;;2.30;1.60;;;7.10;99.90;;;;;;5052251;28;20252;-53
2023/01/06 00:11:54;;;;;;;1.60;1.47;;;7.00;99.90;;;;;;5052591;28;20228;-52
2023/01/06 00:14:21;;;;;;;2.10;1.83;;;7.00;99.90;;;;;;5053645;28;20200;-52
2023/01/06 00:16:48;;;;;;;2.90;2.47;;;7.00;99.90;;;;;;5052414;28;20223;-52
2023/01/06 00:19:15;;;;;;;3.50;2.53;;;7.10;99.90;;;;;;5053370;28;20204;-52
2023/01/06 00:21:43;;;;;;;4.90;3.47;;;7.10;99.90;;;;;;5053487;28;20223;-52
2023/01/06 00:24:11;;;;;;;3.23;3.03;;;7.00;99.90;;;;;;5052722;28;20208;-52
2023/01/06 00:26:38;;;;;;;3.03;2.83;;;7.00;99.90;;;;;;5052375;28;20208;-52
2023/01/06 00:29:05;;;;;;;2.77;2.57;;;7.00;99.90;;;;;;5052930;28;20204;-52
2023/01/06 00:31:32;;;;;;;5.07;3.27;;;6.90;99.90;;;;;;5052940;28;20236;-52
2023/01/06 00:33:59;;;;;;;4.33;3.93;;;6.90;99.90;;;;;;5053412;28;20201;-52
2023/01/06 00:36:26;;;;;;;6.23;3.03;;;6.80;99.90;;;;;;5051970;28;20215;-53
2023/01/06 00:38:54;;;;;;;3.73;3.43;;;6.70;99.90;;;;;;5052414;28;20249;-52
2023/01/06 00:44:07;;;;;;;3.53;3.23;;;6.50;99.90;;;;;;5053103;28;20688;-53
2023/01/06 00:46:34;;;;;;;3.30;3.00;;;6.40;99.90;;;;;;5052434;28;20265;-53
2023/01/06 00:49:02;;;;;;;3.73;3.43;;;6.30;99.90;;;;;;5052696;28;20611;-52
2023/01/06 00:51:29;;;;;;;3.17;2.90;;;6.30;99.90;;;;;;5044308;28;20251;-52
2023/01/06 00:53:59;;;;;;;6.23;5.60;;;6.30;99.90;;;;;;5044673;28;20203;-54
2023/01/06 00:56:26;;;;;;;9.17;5.43;;;6.20;99.90;;;;;;5051664;28;20758;-53
2023/01/06 00:58:53;;;;;;;5.10;4.27;;;6.20;99.90;;;;;;5052504;28;20646;-52
2023/01/06 01:01:20;;;;;;;3.87;3.57;;;6.10;99.90;;;;;;5053048;28;20394;-52
2023/01/06 01:03:47;;;;;;;4.30;3.97;;;6.00;99.90;;;;;;5051928;28;20207;-52
2023/01/06 01:06:15;;;;;;;5.23;4.80;;;5.90;99.90;;;;;;5051760;28;20201;-52
2023/01/06 01:08:42;;;;;;;5.20;4.80;;;5.90;99.90;;;;;;5052258;28;20314;-52
2023/01/06 01:12:08;;;;;;;4.73;4.30;;;5.90;99.90;;;;;;5052425;28;20207;-52
2023/01/06 01:13:59;;;;;;;4.00;3.27;;;5.80;99.90;;;;;;5052341;28;20215;-52
2023/01/06 01:16:26;;;;;;;3.63;2.47;;;5.80;99.90;;;;;;5051699;28;20700;-54
2023/01/06 01:18:53;;;;;;;3.70;3.10;;;5.80;99.90;;;;;;5051134;28;20252;-52
2023/01/06 01:21:20;;;;;;;2.67;2.40;;;5.80;99.90;;;;;;5052154;28;20301;-53
2023/01/06 01:23:47;;;;;;;6.50;6.00;;;5.80;99.90;;;;;;5050418;28;20261;-52
2023/01/06 01:26:16;;;;;;;1.93;1.83;;;5.80;99.90;;;;;;5051310;28;20195;-52
2023/01/06 01:28:43;;;;;;;1.97;1.80;;;5.80;99.90;;;;;;5051987;28;20207;-53
2023/01/06 01:31:11;;;;;;;1.60;1.20;;;5.80;99.90;;;;;;5051650;28;20200;-52
2023/01/06 01:33:39;;;;;;;1.20;1.10;;;6.00;99.90;;;;;;5052104;28;20226;-52
2023/01/06 01:36:07;;;;;;;1.50;1.40;;;6.10;99.90;;;;;;5050985;28;20260;-52
2023/01/06 01:38:34;;;;;;;0.80;0.80;;;6.10;99.90;;;;;;5051685;28;20693;-52
2023/01/06 01:41:01;;;;;;;0.73;0.70;;;6.10;99.90;;;;;;5052107;28;20215;-53
2023/01/06 01:46:25;;;;;;;1.13;0.70;;;6.10;99.90;;;;;;5077291;27;20597;-51
2023/01/06 01:48:55;;;;;;;1.50;1.40;;;6.30;99.90;;;;;;5066213;28;20208;-51
2023/01/06 01:51:26;;;;;;;1.30;1.20;;;6.30;99.90;;;;;;5069032;28;20273;-51
2023/01/06 01:53:57;;;;;;;1.53;1.43;;;6.30;99.90;;;;;;5069096;28;20211;-52
2023/01/06 01:56:29;;;;;;;1.60;1.50;;;6.30;99.90;;;;;;5069035;28;20618;-51
2023/01/06 01:59:06;;;;;;;1.57;1.10;;;6.20;99.90;;;;;;5088972;22;20280;-52
2023/01/06 02:01:34;;;;;;;4.67;3.23;;;6.20;99.90;;;;;;5065824;28;20224;-54
2023/01/06 02:04:02;;;;;;;6.23;5.23;;;6.10;99.90;;;;;;5067335;28;20243;-52
2023/01/06 02:06:30;;;;;;;4.40;4.17;;;5.90;99.90;;;;;;5067018;28;20679;-53
2023/01/06 02:09:06;;;;;;;4.03;3.23;;;5.80;99.90;;;;;;5065023;28;20615;-53
2023/01/06 02:11:36;;;;;;;4.73;4.33;;;5.80;99.90;;;;;;5066897;28;20706;-51
2023/01/06 02:14:09;;;;;;;6.33;5.67;;;5.70;99.90;;;;;;5065577;28;20223;-52
2023/01/06 02:16:50;;;;;;;6.37;5.90;;;5.70;99.90;;;;;;5066887;28;20265;-52
2023/01/06 02:19:42;;;;;;;3.50;3.30;;;5.60;99.90;;;;;;5066880;28;20684;-51
2023/01/06 02:22:26;;;;;;;4.20;4.00;;;5.50;99.90;;;;;;5065163;28;20232;-51
2023/01/06 02:25:38;;;;;;;4.67;4.37;;;5.30;99.90;;;;;;5066128;28;20213;-51
2023/01/06 02:28:34;;;;;;;6.27;5.87;;;5.20;99.90;;;;;;5055958;28;20264;-50
2023/01/06 02:31:47;;;;;;;9.87;9.07;;;5.10;99.90;;;;;;5064908;28;20571;-51
2023/01/06 02:34:22;;;;;;;6.93;6.20;;;5.00;99.90;;;;;;5046850;28;20348;-52
2023/01/06 02:36:58;;;;;;;30.53;22.93;;;5.00;99.90;;;;;;5061360;28;20217;-51
2023/01/06 02:39:32;;;;;;;12.20;11.03;;;5.00;99.90;;;;;;5064727;28;20545;-51
2023/01/06 02:42:11;;;;;;;28.00;25.27;;;5.10;99.90;;;;;;5058712;28;20266;-52
2023/01/06 02:44:46;;;;;;;14.40;13.00;;;5.10;99.90;;;;;;5066436;28;20755;-51
2023/01/06 02:47:19;;;;;;;9.33;8.40;;;5.10;99.90;;;;;;5065025;28;20788;-51
2023/01/06 02:49:57;;;;;;;11.83;10.73;;;5.20;99.90;;;;;;5065623;28;20208;-51
2023/01/06 02:52:32;;;;;;;9.00;7.90;;;5.20;99.90;;;;;;5064849;28;20207;-52
2023/01/06 02:55:04;;;;;;;16.70;15.20;;;5.10;99.90;;;;;;5046463;28;20196;-52
2023/01/06 02:57:37;;;;;;;11.80;10.93;;;5.10;99.90;;;;;;5033873;28;20229;-52
2023/01/06 03:00:11;;;;;;;6.33;5.90;;;5.10;99.90;;;;;;5032882;28;20746;-51
2023/01/06 03:02:42;;;;;;;11.77;10.77;;;5.00;99.90;;;;;;5039038;28;20206;-51
2023/01/06 03:05:13;;;;;;;4.47;4.17;;;5.00;99.90;;;;;;5052246;28;20527;-52
2023/01/06 03:07:42;;;;;;;6.97;6.47;;;5.00;99.90;;;;;;5052752;28;20222;-51
2023/01/06 03:10:10;;;;;;;3.60;3.30;;;5.00;99.90;;;;;;5052602;28;20204;-51
2023/01/06 03:12:42;;;;;;;5.57;5.27;;;4.90;99.90;;;;;;5052918;28;20208;-51
2023/01/06 03:15:10;;;;;;;6.00;5.50;;;4.90;99.90;;;;;;5052279;28;20208;-53
2023/01/06 03:17:37;;;;;;;4.00;3.70;;;4.90;99.90;;;;;;5051345;28;20310;-51
2023/01/06 03:20:07;;;;;;;8.37;7.83;;;4.90;99.90;;;;;;5051482;28;20204;-51
2023/01/06 03:22:37;;;;;;;9.00;8.30;;;4.90;99.90;;;;;;5051254;28;20742;-51
2023/01/06 03:25:06;;;;;;;7.13;6.53;;;4.80;99.90;;;;;;5052735;28;20216;-51
2023/01/06 03:27:33;;;;;;;5.43;4.93;;;4.80;99.90;;;;;;5052451;28;20308;-51
2023/01/06 03:30:01;;;;;;;10.33;9.13;;;4.70;99.90;;;;;;5051261;28;20310;-51
2023/01/06 03:32:31;;;;;;;11.30;10.57;;;4.70;99.90;;;;;;5052341;28;20200;-52
2023/01/06 03:35:12;;;;;;;7.20;6.53;;;4.70;99.90;;;;;;5051595;28;20614;-51
2023/01/06 03:37:50;;;;;;;4.50;4.30;;;4.70;99.90;;;;;;5052067;28;20725;-51
2023/01/06 03:40:27;;;;;;;11.00;10.10;;;4.80;99.90;;;;;;5052035;28;20261;-52
2023/01/06 03:43:14;;;;;;;5.73;5.27;;;4.70;99.90;;;;;;5051275;28;20281;-51
2023/01/06 03:46:07;;;;;;;4.83;4.43;;;4.70;99.90;;;;;;5052143;28;20224;-52
2023/01/06 03:48:47;;;;;;;3.10;2.90;;;4.60;99.90;;;;;;5051244;28;20228;-52
2023/01/06 03:51:30;;;;;;;3.33;3.03;;;4.50;99.90;;;;;;5051372;28;20236;-52
2023/01/06 03:54:04;;;;;;;15.63;14.10;;;4.50;99.90;;;;;;5042970;28;20249;-51
2023/01/06 03:56:39;;;;;;;9.90;9.17;;;4.40;99.90;;;;;;5052063;28;20235;-51
2023/01/06 03:59:09;;;;;;;11.27;10.37;;;4.50;99.90;;;;;;5051756;28;20292;-52
2023/01/06 04:01:37;;;;;;;3.90;3.67;;;4.60;99.90;;;;;;5052062;28;20214;-52
2023/01/06 04:04:04;;;;;;;5.60;5.13;;;4.60;99.90;;;;;;5051092;28;20208;-52
2023/01/06 04:06:33;;;;;;;7.20;6.50;;;4.60;99.90;;;;;;5049080;28;20228;-52
2023/01/06 04:09:00;;;;;;;7.23;6.53;;;4.60;99.90;;;;;;5050532;28;20217;-53
2023/01/06 04:14:11;;;;;;;9.50;8.60;;;4.50;99.90;;;;;;5052054;28;20200;-51
2023/01/06 04:16:38;;;;;;;2.10;2.00;;;4.50;99.90;;;;;;5050525;28;20331;-52
2023/01/06 04:19:05;;;;;;;4.57;4.37;;;4.50;99.90;;;;;;5050764;28;20321;-51
2023/01/06 04:21:33;;;;;;;1.53;1.43;;;4.50;99.90;;;;;;5046472;28;20208;-52
2023/01/06 04:24:00;;;;;;;2.93;2.43;;;4.50;99.90;;;;;;5043245;28;20215;-52
2023/01/06 04:26:27;;;;;;;7.67;7.07;;;4.50;99.90;;;;;;5051532;28;20219;-51
2023/01/06 04:28:56;;;;;;;2.10;2.00;;;4.60;99.90;;;;;;5040426;28;20592;-52
2023/01/06 04:31:23;;;;;;;19.37;17.47;;;4.50;99.90;;;;;;5051087;28;20195;-51
2023/01/06 04:33:49;;;;;;;32.67;29.87;;;4.50;99.90;;;;;;5044050;28;20263;-52
2023/01/06 04:36:19;;;;;;;10.33;9.53;;;4.50;99.90;;;;;;5044443;28;20199;-51
2023/01/06 04:38:47;;;;;;;9.47;8.67;;;4.50;99.90;;;;;;5040751;28;20260;-51
2023/01/06 04:41:14;;;;;;;5.70;5.40;;;4.40;99.90;;;;;;5031170;28;20207;-53
2023/01/06 04:43:41;;;;;;;9.70;8.70;;;4.40;99.90;;;;;;5031102;28;20714;-52
2023/01/06 04:46:08;;;;;;;7.40;5.40;;;4.40;99.90;;;;;;5048553;28;20775;-52
2023/01/06 04:48:36;;;;;;;4.70;4.03;;;4.40;99.90;;;;;;5050620;28;20648;-51
2023/01/06 04:51:04;;;;;;;3.63;3.43;;;4.30;99.90;;;;;;5050806;28;20290;-52
2023/01/06 04:53:33;;;;;;;1.90;1.80;;;4.30;99.90;;;;;;5047513;28;20266;-53
2023/01/06 04:56:04;;;;;;;3.20;2.90;;;4.20;99.90;;;;;;5031309;28;20279;-51
2023/01/06 04:58:31;;;;;;;5.83;5.43;;;4.20;99.90;;;;;;5030509;28;20378;-52
2023/01/06 05:01:02;;;;;;;11.93;11.03;;;4.20;99.90;;;;;;5035017;28;20201;-51
2023/01/06 05:03:29;;;;;;;4.47;4.03;;;4.20;99.90;;;;;;5040409;28;20212;-52
2023/01/06 05:05:59;;;;;;;5.13;4.33;;;4.20;99.90;;;;;;5030872;28;20595;-51
2023/01/06 05:08:26;;;;;;;3.97;3.67;;;4.20;99.90;;;;;;5047136;28;20273;-51
2023/01/06 05:10:59;;;;;;;19.47;17.77;;;4.20;99.90;;;;;;5049599;28;20699;-52
2023/01/06 05:13:28;;;;;;;13.43;12.13;;;4.20;99.90;;;;;;5050677;28;20383;-51
2023/01/06 05:15:55;;;;;;;5.13;4.67;;;4.10;99.90;;;;;;5050752;28;20824;-51
2023/01/06 05:18:22;;;;;;;3.37;3.17;;;4.10;99.90;;;;;;5037732;28;20701;-52
2023/01/06 05:20:51;;;;;;;5.73;5.23;;;4.00;99.90;;;;;;5049132;28;20297;-51
2023/01/06 05:23:18;;;;;;;7.87;6.20;;;3.90;99.90;;;;;;5048657;28;20208;-51
2023/01/06 05:25:45;;;;;;;4.90;4.60;;;3.90;99.90;;;;;;5044500;28;20220;-52
2023/01/06 05:28:13;;;;;;;5.97;5.57;;;3.90;99.90;;;;;;5049875;28;20223;-52
2023/01/06 05:30:41;;;;;;;7.23;6.43;;;3.90;99.90;;;;;;5050184;28;20247;-52
2023/01/06 05:33:08;;;;;;;4.53;4.23;;;3.80;99.90;;;;;;5050637;28;20205;-51
2023/01/06 05:35:36;;;;;;;3.27;2.97;;;3.80;99.90;;;;;;5050307;28;20208;-53
2023/01/06 05:38:03;;;;;;;3.47;3.27;;;3.90;99.90;;;;;;5042789;28;20213;-51
2023/01/06 05:40:30;;;;;;;3.97;3.77;;;3.70;99.90;;;;;;5043836;28;20204;-52
2023/01/06 05:42:57;;;;;;;7.30;5.93;;;3.70;99.90;;;;;;5046170;28;20259;-51
2023/01/06 05:45:25;;;;;;;9.67;8.77;;;3.70;99.90;;;;;;5048371;28;20284;-51
2023/01/06 05:47:53;;;;;;;4.40;4.00;;;3.70;99.90;;;;;;5050227;28;20596;-50
2023/01/06 05:50:20;;;;;;;4.77;3.43;;;3.70;99.90;;;;;;5048922;28;20272;-51
2023/01/06 05:52:47;;;;;;;7.20;6.60;;;3.90;99.90;;;;;;5049659;28;20264;-51
2023/01/06 05:55:14;;;;;;;3.77;3.47;;;3.80;99.90;;;;;;5048955;28;20198;-52
2023/01/06 05:57:41;;;;;;;3.33;3.13;;;3.80;99.90;;;;;;5047371;28;20232;-51
2023/01/06 06:00:10;;;;;;;2.70;2.60;;;3.70;99.90;;;;;;5041953;28;20290;-52
2023/01/06 06:02:37;;;;;;;13.13;12.03;;;3.80;99.90;;;;;;5049316;28;20211;-51
2023/01/06 06:05:05;;;;;;;13.30;11.80;;;3.80;99.90;;;;;;5035360;28;20290;-51
2023/01/06 06:07:32;;;;;;;11.70;10.60;;;3.80;99.90;;;;;;5043967;28;20292;-51
2023/01/06 06:09:59;;;;;;;15.63;13.23;;;3.80;99.90;;;;;;5049609;28;20217;-51
2023/01/06 06:12:26;;;;;;;11.67;10.60;;;3.80;99.90;;;;;;5049284;28;20210;-52
2023/01/06 06:14:53;;;;;;;9.73;8.33;;;3.90;99.90;;;;;;5050088;28;20293;-51
2023/01/06 06:17:20;;;;;;;12.20;11.00;;;3.90;99.90;;;;;;5049965;28;20282;-51
2023/01/06 06:19:47;;;;;;;5.87;5.37;;;3.80;99.90;;;;;;5049784;28;20215;-51
2023/01/06 06:22:16;;;;;;;5.30;4.20;;;3.70;99.90;;;;;;5049697;28;20209;-52
2023/01/06 06:24:43;;;;;;;6.67;4.83;;;3.70;99.90;;;;;;5050093;28;20207;-52
2023/01/06 06:27:10;;;;;;;5.70;5.20;;;3.60;99.90;;;;;;5046838;28;20230;-51
2023/01/06 06:29:37;;;;;;;7.83;5.97;;;3.60;99.90;;;;;;5051440;28;20199;-51
2023/01/06 06:32:07;;;;;;;7.37;5.13;;;3.50;99.90;;;;;;5045241;28;20198;-51
2023/01/06 06:34:34;;;;;;;5.87;5.30;;;3.50;99.90;;;;;;5052100;28;20246;-51
2023/01/06 06:37:01;;;;;;;8.50;6.77;;;3.40;99.90;;;;;;5033642;28;20258;-52
2023/01/06 06:39:29;;;;;;;8.97;8.27;;;3.40;99.90;;;;;;5044409;28;20666;-51
2023/01/06 06:41:56;;;;;;;6.80;6.20;;;3.40;99.90;;;;;;5038501;28;20322;-51
2023/01/06 06:44:23;;;;;;;20.77;17.57;;;3.40;99.90;;;;;;5050038;28;20230;-51
2023/01/06 06:46:50;;;;;;;10.90;9.97;;;3.40;99.90;;;;;;5051402;28;20260;-51
2023/01/06 06:49:17;;;;;;;10.80;9.93;;;3.40;99.90;;;;;;5053054;28;20670;-52
2023/01/06 06:51:46;;;;;;;11.60;10.43;;;3.40;99.90;;;;;;5052572;28;20661;-51
2023/01/06 06:54:13;;;;;;;14.03;12.73;;;3.40;99.90;;;;;;5051322;28;20271;-52
2023/01/06 06:56:41;;;;;;;14.23;13.03;;;3.40;99.90;;;;;;5050284;28;20203;-50
2023/01/06 06:59:08;;;;;;;15.07;13.53;;;3.40;99.90;;;;;;5047173;28;20266;-51
2023/01/06 07:01:35;;;;;;;7.80;7.00;;;3.40;99.90;;;;;;5051825;28;20683;-52
2023/01/06 07:04:02;;;;;;;15.60;13.97;;;3.40;99.90;;;;;;5053197;28;20593;-51
2023/01/06 07:06:30;;;;;;;31.37;28.30;;;3.40;99.90;;;;;;5053001;28;20611;-52
2023/01/06 07:08:57;;;;;;;26.47;18.57;;;3.40;99.90;;;;;;5051036;28;20230;-51
2023/01/06 07:11:24;;;;;;;22.47;13.07;;;3.40;99.90;;;;;;5053185;28;20280;-50
2023/01/06 07:13:53;;;;;;;13.87;11.20;;;3.50;99.90;;;;;;5053317;28;20580;-51
2023/01/06 07:16:21;;;;;;;11.93;7.37;;;3.50;99.90;;;;;;5052236;28;20193;-51
2023/01/06 07:18:48;;;;;;;23.27;8.70;;;3.50;99.90;;;;;;5047633;28;20595;-51
2023/01/06 07:21:15;;;;;;;8.00;6.30;;;3.50;99.90;;;;;;5052729;28;20198;-51
2023/01/06 07:23:42;;;;;;;6.57;4.97;;;3.50;99.90;;;;;;5050843;28;20253;-50
2023/01/06 07:26:10;;;;;;;8.13;5.67;;;3.50;99.90;;;;;;5050187;28;20230;-52
2023/01/06 07:28:37;;;;;;;15.43;8.20;;;3.50;99.90;;;;;;5051348;28;20233;-51
2023/01/06 07:31:06;;;;;;;12.93;6.43;;;3.40;99.90;;;;;;5056822;28;20657;-52
2023/01/06 07:33:33;;;;;;;8.63;5.63;;;3.40;99.90;;;;;;5050470;28;20583;-50
2023/01/06 07:36:00;;;;;;;11.40;6.13;;;3.40;99.90;;;;;;5045023;28;20250;-51
2023/01/06 07:38:27;;;;;;;6.80;6.17;;;3.40;99.90;;;;;;5048449;28;20220;-51
2023/01/06 07:40:59;;;;;;;10.83;7.53;;;3.40;99.90;;;;;;5052402;28;20204;-51
2023/01/06 07:43:26;;;;;;;12.97;8.33;;;3.40;99.90;;;;;;5039273;28;20261;-52
2023/01/06 07:45:53;;;;;;;12.53;8.90;;;3.40;99.90;;;;;;5045018;28;20203;-52
2023/01/06 07:48:21;;;;;;;14.10;11.80;;;3.40;99.90;;;;;;5047572;28;20696;-52
2023/01/06 07:50:48;;;;;;;13.87;11.97;;;3.50;99.90;;;;;;5055779;28;20206;-51
2023/01/06 07:53:15;;;;;;;18.83;12.20;;;3.50;99.90;;;;;;5051836;28;20253;-51
2023/01/06 07:55:42;;;;;;;13.00;10.47;;;3.50;99.90;;;;;;5048607;28;20197;-52
2023/01/06 07:58:10;;;;;;;15.27;10.30;;;3.60;99.90;;;;;;5043803;28;20229;-52
2023/01/06 08:00:37;;;;;;;32.00;24.10;;;3.60;99.90;;;;;;5050162;28;20210;-52
2023/01/06 08:03:07;;;;;;;38.43;19.07;;;3.60;99.90;;;;;;5046094;28;20203;-52
2023/01/06 08:05:40;;;;;;;43.07;20.77;;;3.70;99.90;;;;;;5044348;28;20571;-52
2023/01/06 08:08:07;;;;;;;39.27;14.43;;;3.80;99.90;;;;;;5046364;28;20253;-52
2023/01/06 08:10:34;;;;;;;22.37;10.03;;;3.90;99.90;;;;;;5048759;28;20717;-52
2023/01/06 08:13:01;;;;;;;8.77;6.40;;;3.90;99.90;;;;;;5051126;28;20209;-50
2023/01/06 08:15:28;;;;;;;11.57;8.10;;;3.90;99.90;;;;;;5049771;28;20664;-50
2023/01/06 08:17:55;;;;;;;12.70;9.53;;;4.00;99.90;;;;;;5055533;28;20264;-50
2023/01/06 08:20:23;;;;;;;26.10;14.70;;;4.00;99.90;;;;;;5071804;28;20199;-50
2023/01/06 08:22:51;;;;;;;12.30;9.43;;;4.00;99.90;;;;;;5072106;28;20695;-50
2023/01/06 08:25:19;;;;;;;13.87;8.70;;;4.10;99.90;;;;;;5071795;28;20206;-50
2023/01/06 08:27:45;;;;;;;9.43;7.37;;;4.00;99.90;;;;;;5071486;28;20235;-51
2023/01/06 08:30:15;;;;;;;31.33;11.50;;;4.10;99.90;;;;;;5071229;28;20204;-50
2023/01/06 08:32:42;;;;;;;29.87;12.33;;;4.20;99.90;;;;;;5071541;28;20245;-50
2023/01/06 08:35:09;;;;;;;21.93;12.67;;;4.20;99.90;;;;;;5050904;28;20215;-50
2023/01/06 08:37:36;;;;;;;34.73;8.93;;;4.30;99.90;;;;;;5051435;28;20234;-50
2023/01/06 08:40:06;;;;;;;7.73;7.03;;;4.20;99.90;;;;;;5051276;28;20249;-50
2023/01/06 08:42:33;;;;;;;49.07;8.40;;;4.30;99.90;;;;;;5051407;28;20207;-50
2023/01/06 08:45:00;;;;;;;31.17;7.10;;;4.30;99.90;;;;;;5051375;28;20203;-50
2023/01/06 08:47:27;;;;;;;25.47;6.77;;;4.40;99.90;;;;;;5051352;28;20587;-50
2023/01/06 08:49:54;;;;;;;6.43;5.33;;;4.30;99.90;;;;;;5050349;28;20670;-50
2023/01/06 08:52:21;;;;;;;7.87;7.07;;;4.50;99.90;;;;;;5050860;28;20622;-49
2023/01/06 08:54:49;;;;;;;8.63;7.10;;;4.70;99.90;;;;;;5050144;28;20207;-50
2023/01/06 08:57:17;;;;;;;6.23;5.73;;;4.90;99.90;;;;;;5050911;28;20301;-49
2023/01/06 08:59:44;;;;;;;29.17;7.07;;;4.90;99.90;;;;;;5050891;28;20219;-50
2023/01/06 09:02:11;;;;;;;61.03;7.03;;;4.90;99.90;;;;;;5050996;28;20208;-49
2023/01/06 09:04:38;;;;;;;6.33;5.80;;;4.80;99.90;;;;;;5051170;28;20281;-51
2023/01/06 09:07:08;;;;;;;6.93;5.77;;;4.80;99.90;;;;;;5050015;28;20676;-50
2023/01/06 09:09:35;;;;;;;4.50;4.10;;;4.90;99.90;;;;;;5050680;28;20211;-49
2023/01/06 09:12:06;;;;;;;5.83;4.57;;;4.90;99.90;;;;;;5050778;28;20201;-50
2023/01/06 09:14:34;;;;;;;5.13;4.73;;;5.00;99.90;;;;;;5050880;28;20752;-52
2023/01/06 09:17:04;;;;;;;6.60;4.20;;;5.00;99.90;;;;;;5050664;28;20265;-52
2023/01/06 09:19:31;;;;;;;4.07;3.87;;;5.00;99.90;;;;;;5050283;28;20211;-52
2023/01/06 09:21:58;;;;;;;5.03;4.70;;;5.10;99.90;;;;;;5050651;28;20261;-52
2023/01/06 09:24:25;;;;;;;19.97;6.23;;;5.30;99.90;;;;;;5049930;28;20269;-51
2023/01/06 09:26:52;;;;;;;8.67;5.57;;;5.40;99.90;;;;;;5047650;28;20227;-52
2023/01/06 09:29:20;;;;;;;7.10;5.93;;;5.40;99.90;;;;;;5048343;28;20203;-51
2023/01/06 09:31:48;;;;;;;7.47;6.00;;;5.50;99.90;;;;;;5050208;28;20228;-51
2023/01/06 09:34:15;;;;;;;6.13;5.57;;;5.60;99.90;;;;;;5050520;28;20199;-51
2023/01/06 09:36:42;;;;;;;6.70;6.07;;;5.70;99.90;;;;;;5050497;28;20346;-52
2023/01/06 09:39:09;;;;;;;7.27;5.87;;;5.80;99.90;;;;;;5050320;28;20221;-51
2023/01/06 09:41:50;;;;;;;6.10;5.60;;;6.00;99.90;;;;;;5049403;28;20699;-51
2023/01/06 09:44:20;;;;;;;7.17;5.40;;;6.20;99.90;;;;;;5050286;28;20204;-53
2023/01/06 09:46:51;;;;;;;7.17;6.57;;;6.40;99.90;;;;;;5037523;28;20224;-51
2023/01/06 09:49:27;;;;;;;7.07;6.47;;;6.40;99.90;;;;;;5029972;28;20234;-52
2023/01/06 09:51:56;;;;;;;6.87;6.17;;;6.40;99.90;;;;;;5030314;28;20207;-53
2023/01/06 09:54:28;;;;;;;7.00;6.30;;;6.50;99.90;;;;;;5030278;28;20312;-51
2023/01/06 09:57:05;;;;;;;9.23;6.57;;;6.80;99.90;;;;;;5029954;28;20200;-52
2023/01/06 09:59:38;;;;;;;6.47;5.47;;;7.20;99.90;;;;;;5043685;28;20719;-53
2023/01/06 10:02:14;;;;;;;5.67;5.03;;;7.30;99.90;;;;;;5050002;28;20289;-52
2023/01/06 10:04:41;;;;;;;7.50;6.90;;;7.60;99.90;;;;;;5049893;28;20550;-51
2023/01/06 10:07:16;;;;;;;6.43;5.93;;;7.90;99.90;;;;;;5052146;28;20235;-52
2023/01/06 10:09:48;;;;;;;4.83;4.53;;;8.20;99.90;;;;;;5053786;28;20625;-52
2023/01/06 10:12:30;;;;;;;6.03;5.13;;;8.40;99.90;;;;;;5049824;28;20202;-51
2023/01/06 10:15:08;;;;;;;6.33;5.73;;;8.50;99.90;;;;;;5046176;28;20261;-54
2023/01/06 10:17:52;;;;;;;5.50;5.00;;;8.30;99.90;;;;;;5047838;28;20651;-52
2023/01/06 10:20:44;;;;;;;4.87;4.47;;;8.30;99.90;;;;;;5052292;28;20230;-51
2023/01/06 10:23:32;;;;;;;5.50;5.10;;;8.30;99.90;;;;;;5049683;28;20203;-53
2023/01/06 10:26:10;;;;;;;4.40;3.90;;;8.40;99.90;;;;;;5046683;28;20291;-52
2023/01/06 10:28:41;;;;;;;6.20;5.60;;;8.30;99.90;;;;;;5050664;28;20234;-52
2023/01/06 10:31:12;;;;;;;8.30;7.30;;;8.40;99.90;;;;;;5052379;28;20291;-53
2023/01/06 10:33:43;;;;;;;5.97;5.33;;;8.50;99.90;;;;;;5049137;28;20200;-52
2023/01/06 10:36:13;;;;;;;5.30;4.90;;;8.50;99.90;;;;;;5051699;28;20204;-52
2023/01/06 10:38:43;;;;;;;4.90;4.47;;;8.70;99.90;;;;;;5051941;28;20690;-52
2023/01/06 10:41:19;;;;;;;4.93;4.63;;;8.80;99.90;;;;;;5050604;28;20254;-52
2023/01/06 10:43:46;;;;;;;8.13;6.83;;;9.10;99.90;;;;;;5051616;28;20265;-52
2023/01/06 10:46:15;;;;;;;19.97;17.73;;;9.50;99.90;;;;;;5050724;28;20272;-52
2023/01/06 10:48:44;;;;;;;10.30;8.93;;;9.70;99.90;;;;;;5043404;28;20220;-52
2023/01/06 10:51:35;;;;;;;4.50;4.20;;;9.90;99.90;;;;;;5048066;28;20357;-53
2023/01/06 10:54:07;;;;;;;6.07;5.63;;;9.90;99.90;;;;;;5042266;28;20662;-52
2023/01/06 10:56:36;;;;;;;4.23;3.93;;;10.10;99.90;;;;;;5043415;28;20212;-53
2023/01/06 10:59:07;;;;;;;3.73;3.50;;;10.40;99.90;;;;;;5040745;28;20225;-52
2023/01/06 11:01:36;;;;;;;3.00;2.80;;;10.70;99.90;;;;;;5043688;28;20227;-50
2023/01/06 11:04:10;;;;;;;10.00;9.17;;;10.50;99.90;;;;;;5043029;28;20334;-51
2023/01/06 11:06:41;;;;;;;4.20;3.90;;;10.60;99.90;;;;;;5041795;28;20204;-52
2023/01/06 11:09:21;;;;;;;3.70;3.50;;;10.50;99.90;;;;;;5043202;28;20709;-52
2023/01/06 11:11:50;;;;;;;18.80;14.43;;;10.20;99.90;;;;;;5043110;28;20233;-51
2023/01/06 11:14:19;;;;;;;12.53;9.23;;;10.30;99.90;;;;;;5043204;28;20209;-54
2023/01/06 11:16:56;;;;;;;1.27;1.17;;;10.30;99.90;;;;;;5049949;28;20254;-53
2023/01/06 11:19:34;;;;;;;1.20;1.20;;;10.20;99.90;;;;;;5042159;28;20569;-52
2023/01/06 11:22:01;;;;;;;2.53;2.40;;;10.20;99.90;;;;;;5044503;28;20605;-52
2023/01/06 11:24:29;;;;;;;1.40;1.30;;;10.20;99.90;;;;;;5050554;28;20215;-53
2023/01/06 11:26:58;;;;;;;1.53;1.43;;;10.10;99.90;;;;;;5045599;28;20197;-53
2023/01/06 11:29:28;;;;;;;1.73;1.63;;;10.10;99.90;;;;;;5050080;28;20208;-52
2023/01/06 11:31:56;;;;;;;4.60;2.83;;;10.10;99.90;;;;;;5045513;28;20212;-52
2023/01/06 11:34:27;;;;;;;2.93;2.63;;;10.10;99.90;;;;;;5051227;28;20198;-52
2023/01/06 11:36:55;;;;;;;3.63;3.33;;;10.20;99.90;;;;;;5048821;28;20290;-52
2023/01/06 11:39:26;;;;;;;2.97;2.77;;;10.10;99.90;;;;;;5050389;28;20226;-52
2023/01/06 11:41:55;;;;;;;3.37;3.07;;;10.20;99.90;;;;;;5049887;28;20298;-52
2023/01/06 11:44:31;;;;;;;5.27;4.83;;;10.20;99.90;;;;;;5050915;28;20236;-53
2023/01/06 11:47:04;;;;;;;4.83;3.63;;;10.10;99.90;;;;;;5048405;28;20830;-52
2023/01/06 11:49:37;;;;;;;4.30;3.97;;;10.00;99.90;;;;;;5049548;28;20256;-52
2023/01/06 11:52:20;;;;;;;4.87;4.43;;;9.90;99.90;;;;;;5047808;28;20206;-53
2023/01/06 11:54:57;;;;;;;4.77;4.37;;;9.80;99.90;;;;;;5051408;28;20243;-52
2023/01/06 11:57:40;;;;;;;2.93;2.73;;;9.80;99.90;;;;;;5045655;28;20673;-53
2023/01/06 12:00:36;;;;;;;2.93;2.83;;;9.80;99.90;;;;;;5042579;28;20220;-52
2023/01/06 12:03:14;;;;;;;3.83;2.50;;;9.80;99.90;;;;;;5044623;28;20208;-52
2023/01/06 12:05:51;;;;;;;2.00;1.90;;;9.70;99.90;;;;;;5049846;28;20293;-52
2023/01/06 12:08:21;;;;;;;1.47;1.37;;;9.80;99.90;;;;;;5041380;28;20230;-52
2023/01/06 12:10:53;;;;;;;2.40;1.90;;;9.80;99.90;;;;;;5041535;28;20225;-51
2023/01/06 12:13:21;;;;;;;1.60;1.50;;;9.80;99.90;;;;;;5042146;28;20211;-51
2023/01/06 12:15:56;;;;;;;1.43;1.33;;;9.90;99.90;;;;;;5043900;28;20200;-52
2023/01/06 12:18:30;;;;;;;2.30;2.20;;;9.90;99.90;;;;;;5046324;28;20277;-51
2023/01/06 12:21:01;;;;;;;2.27;2.03;;;9.90;99.90;;;;;;5036984;28;20194;-51
2023/01/06 12:23:33;;;;;;;2.97;2.27;;;9.90;99.90;;;;;;5044723;28;20207;-52
2023/01/06 12:26:03;;;;;;;2.17;1.97;;;9.90;99.90;;;;;;5045012;28;20287;-51
2023/01/06 12:28:33;;;;;;;1.93;1.83;;;9.90;99.90;;;;;;5041958;28;20225;-51
2023/01/06 12:31:07;;;;;;;1.87;1.80;;;10.10;99.90;;;;;;5032409;28;20213;-50
2023/01/06 12:33:40;;;;;;;2.63;2.43;;;10.30;99.90;;;;;;5052404;28;20294;-51
2023/01/06 12:36:15;;;;;;;2.33;2.23;;;10.30;99.90;;;;;;5068801;28;20201;-51
2023/01/06 12:38:52;;;;;;;2.67;2.47;;;10.40;99.90;;;;;;5061901;28;20214;-50
2023/01/06 12:41:26;;;;;;;3.60;2.57;;;10.40;99.90;;;;;;5056043;28;20960;-50
2023/01/06 12:44:00;;;;;;;3.53;2.37;;;10.50;99.90;;;;;;5045010;28;20835;-51
2023/01/06 12:46:35;;;;;;;2.90;2.70;;;10.50;99.90;;;;;;5051065;28;20566;-51
2023/01/06 12:49:06;;;;;;;2.90;2.70;;;10.60;99.90;;;;;;5049967;28;20288;-54
2023/01/06 12:51:40;;;;;;;3.07;2.73;;;10.60;99.90;;;;;;5050740;28;20259;-50
2023/01/06 12:54:14;;;;;;;4.20;2.93;;;10.40;99.90;;;;;;5038993;28;20193;-53
2023/01/06 12:56:58;;;;;;;4.10;3.23;;;10.40;99.90;;;;;;5045047;28;20207;-51
2023/01/06 12:59:39;;;;;;;3.13;2.93;;;10.50;99.90;;;;;;5050739;28;20204;-51
2023/01/06 13:02:25;;;;;;;3.27;3.07;;;10.50;99.90;;;;;;5050546;28;20204;-50
2023/01/06 13:05:31;;;;;;;4.77;2.73;;;10.50;99.90;;;;;;5047786;28;20210;-50
2023/01/06 13:08:15;;;;;;;2.30;2.20;;;10.50;99.90;;;;;;5012553;28;20220;-51
2023/01/06 13:10:46;;;;;;;4.13;3.93;;;10.50;99.90;;;;;;5044115;28;20245;-51
2023/01/06 13:13:34;;;;;;;3.67;3.37;;;10.50;99.90;;;;;;5044900;28;20315;-50
2023/01/06 13:16:11;;;;;;;3.63;3.33;;;10.60;99.90;;;;;;5039857;28;20204;-51
2023/01/06 13:18:57;;;;;;;3.37;2.40;;;10.60;99.90;;;;;;5049665;28;20357;-51